sensor_id;sensor_type;location;lat;lon;timestamp;pressure;altitude;pressure_sealevel;temperature;humidity
28428;BME280;15662;49.128;8.520;2022-08-20T00:00:31;100270.03;;;26.93;43.00
28428;BME280;15662;49.128;8.520;2022-08-20T00:03:02;100283.25;;;26.68;42.83
28428;BME280;15662;49.128;8.520;2022-08-20T00:05:41;100283.22;;;26.88;43.09
28428;BME280;15662;49.128;8.520;2022-08-20T00:08:10;100286.09;;;26.86;43.14
28428;BME280;15662;49.128;8.520;2022-08-20T00:10:43;100295.69;;;26.90;43.21
28428;BME280;15662;49.128;8.520;2022-08-20T00:13:29;100290.38;;;26.89;43.44
28428;BME280;15662;49.128;8.520;2022-08-20T00:15:58;100301.00;;;26.82;43.52
28428;BME280;15662;49.128;8.520;2022-08-20T00:18:27;100301.84;;;26.83;43.49
28428;BME280;15662;49.128;8.520;2022-08-20T00:20:57;100291.25;;;26.80;43.56
28428;BME280;15662;49.128;8.520;2022-08-20T00:23:25;100296.00;;;26.78;43.50
28428;BME280;15662;49.128;8.520;2022-08-20T00:25:54;100296.41;;;26.73;43.82
28428;BME280;15662;49.128;8.520;2022-08-20T00:28:22;100282.13;;;26.61;43.77
28428;BME280;15662;49.128;8.520;2022-08-20T00:30:50;100296.56;;;26.71;43.81
28428;BME280;15662;49.128;8.520;2022-08-20T00:33:22;100294.88;;;26.70;43.79
28428;BME280;15662;49.128;8.520;2022-08-20T00:35:55;100310.59;;;26.67;44.02
28428;BME280;15662;49.128;8.520;2022-08-20T00:38:25;100295.00;;;26.59;44.34
28428;BME280;15662;49.128;8.520;2022-08-20T00:40:56;100281.41;;;26.49;44.15
28428;BME280;15662;49.128;8.520;2022-08-20T00:48:43;100303.59;;;26.55;44.36
28428;BME280;15662;49.128;8.520;2022-08-20T00:54:26;100316.75;;;26.49;44.56
28428;BME280;15662;49.128;8.520;2022-08-20T00:57:25;100319.19;;;26.43;44.52
28428;BME280;15662;49.128;8.520;2022-08-20T01:00:30;100311.28;;;26.40;44.70
28428;BME280;15662;49.128;8.520;2022-08-20T01:03:00;100317.13;;;26.35;44.90
28428;BME280;15662;49.128;8.520;2022-08-20T01:05:28;100303.84;;;26.32;45.04
28428;BME280;15662;49.128;8.520;2022-08-20T01:07:58;100322.16;;;26.40;45.30
28428;BME280;15662;49.128;8.520;2022-08-20T01:10:32;100316.00;;;26.38;45.17
28428;BME280;15662;49.128;8.520;2022-08-20T01:13:08;100315.84;;;26.39;45.41
28428;BME280;15662;49.128;8.520;2022-08-20T01:15:42;100308.13;;;26.35;45.32
28428;BME280;15662;49.128;8.520;2022-08-20T01:18:16;100318.44;;;26.41;45.22
28428;BME280;15662;49.128;8.520;2022-08-20T01:20:51;100311.75;;;26.45;45.26
28428;BME280;15662;49.128;8.520;2022-08-20T01:28:51;100311.88;;;26.43;45.31
28428;BME280;15662;49.128;8.520;2022-08-20T01:31:28;100323.03;;;26.40;45.55
28428;BME280;15662;49.128;8.520;2022-08-20T01:34:00;100326.72;;;26.39;45.65
28428;BME280;15662;49.128;8.520;2022-08-20T01:36:51;100334.03;;;26.39;45.56
28428;BME280;15662;49.128;8.520;2022-08-20T01:39:27;100328.88;;;26.36;45.80
28428;BME280;15662;49.128;8.520;2022-08-20T01:44:52;100323.44;;;26.26;46.15
28428;BME280;15662;49.128;8.520;2022-08-20T01:47:27;100321.59;;;26.27;46.03
28428;BME280;15662;49.128;8.520;2022-08-20T01:50:05;100337.03;;;26.26;46.04
28428;BME280;15662;49.128;8.520;2022-08-20T01:55:39;100327.56;;;26.11;46.40
28428;BME280;15662;49.128;8.520;2022-08-20T01:58:09;100336.16;;;26.16;46.32
28428;BME280;15662;49.128;8.520;2022-08-20T02:00:37;100341.59;;;26.16;46.29
28428;BME280;15662;49.128;8.520;2022-08-20T02:03:07;100352.47;;;26.16;46.61
28428;BME280;15662;49.128;8.520;2022-08-20T02:05:35;100350.28;;;26.10;46.65
28428;BME280;15662;49.128;8.520;2022-08-20T02:08:04;100358.16;;;26.13;46.80
28428;BME280;15662;49.128;8.520;2022-08-20T02:10:34;100344.28;;;26.06;47.00
28428;BME280;15662;49.128;8.520;2022-08-20T02:13:04;100346.13;;;26.06;46.94
28428;BME280;15662;49.128;8.520;2022-08-20T02:15:33;100361.59;;;26.15;47.01
28428;BME280;15662;49.128;8.520;2022-08-20T02:18:12;100368.31;;;26.20;46.95
28428;BME280;15662;49.128;8.520;2022-08-20T02:20:43;100358.19;;;26.22;46.78
28428;BME280;15662;49.128;8.520;2022-08-20T02:23:13;100351.91;;;26.22;47.10
28428;BME280;15662;49.128;8.520;2022-08-20T02:25:45;100349.75;;;26.26;47.06
28428;BME280;15662;49.128;8.520;2022-08-20T02:28:17;100359.47;;;26.28;47.16
28428;BME280;15662;49.128;8.520;2022-08-20T02:30:51;100357.59;;;26.29;47.09
28428;BME280;15662;49.128;8.520;2022-08-20T02:33:22;100370.78;;;26.33;47.16
28428;BME280;15662;49.128;8.520;2022-08-20T02:35:52;100366.19;;;26.34;47.27
28428;BME280;15662;49.128;8.520;2022-08-20T02:38:24;100372.22;;;26.37;47.32
28428;BME280;15662;49.128;8.520;2022-08-20T02:40:52;100361.94;;;26.41;47.16
28428;BME280;15662;49.128;8.520;2022-08-20T02:43:20;100361.06;;;26.40;46.88
28428;BME280;15662;49.128;8.520;2022-08-20T02:45:50;100356.38;;;26.42;47.20
28428;BME280;15662;49.128;8.520;2022-08-20T02:48:20;100350.53;;;26.47;47.23
28428;BME280;15662;49.128;8.520;2022-08-20T02:50:57;100356.81;;;26.47;47.18
28428;BME280;15662;49.128;8.520;2022-08-20T02:53:30;100357.81;;;26.46;47.13
28428;BME280;15662;49.128;8.520;2022-08-20T02:56:00;100355.38;;;26.43;47.45
28428;BME280;15662;49.128;8.520;2022-08-20T02:58:29;100355.22;;;26.45;47.49
28428;BME280;15662;49.128;8.520;2022-08-20T03:00:58;100357.66;;;26.48;47.41
28428;BME280;15662;49.128;8.520;2022-08-20T03:03:29;100351.91;;;26.22;47.29
28428;BME280;15662;49.128;8.520;2022-08-20T03:06:00;100359.22;;;26.41;47.34
28428;BME280;15662;49.128;8.520;2022-08-20T03:08:29;100346.22;;;26.44;47.21
28428;BME280;15662;49.128;8.520;2022-08-20T03:10:58;100349.38;;;26.49;47.62
28428;BME280;15662;49.128;8.520;2022-08-20T03:13:26;100339.66;;;26.47;47.60
28428;BME280;15662;49.128;8.520;2022-08-20T03:15:59;100349.53;;;26.58;47.73
28428;BME280;15662;49.128;8.520;2022-08-20T03:18:41;100344.34;;;26.55;47.63
28428;BME280;15662;49.128;8.520;2022-08-20T03:21:12;100349.53;;;26.58;47.82
28428;BME280;15662;49.128;8.520;2022-08-20T03:23:42;100348.78;;;26.36;47.63
28428;BME280;15662;49.128;8.520;2022-08-20T03:26:12;100351.97;;;26.51;47.64
28428;BME280;15662;49.128;8.520;2022-08-20T03:28:42;100352.25;;;26.58;47.63
28428;BME280;15662;49.128;8.520;2022-08-20T03:31:16;100354.69;;;26.61;47.67
28428;BME280;15662;49.128;8.520;2022-08-20T03:33:46;100350.81;;;26.63;47.62
28428;BME280;15662;49.128;8.520;2022-08-20T03:36:22;100356.66;;;26.68;47.54
28428;BME280;15662;49.128;8.520;2022-08-20T03:38:57;100356.66;;;26.68;47.50
28428;BME280;15662;49.128;8.520;2022-08-20T03:41:26;100360.66;;;26.64;47.73
28428;BME280;15662;49.128;8.520;2022-08-20T03:43:55;100357.69;;;26.67;47.71
28428;BME280;15662;49.128;8.520;2022-08-20T03:46:24;100342.94;;;26.60;47.61
28428;BME280;15662;49.128;8.520;2022-08-20T03:48:54;100354.94;;;26.67;47.68
28428;BME280;15662;49.128;8.520;2022-08-20T03:51:29;100358.53;;;26.68;47.69
28428;BME280;15662;49.128;8.520;2022-08-20T03:53:58;100351.66;;;26.64;47.90
28428;BME280;15662;49.128;8.520;2022-08-20T03:56:27;100365.25;;;26.64;48.71
28428;BME280;15662;49.128;8.520;2022-08-20T03:58:56;100363.09;;;26.58;49.54
28428;BME280;15662;49.128;8.520;2022-08-20T04:01:24;100350.22;;;26.40;50.16
28428;BME280;15662;49.128;8.520;2022-08-20T04:04:13;100369.34;;;26.39;50.38
28428;BME280;15662;49.128;8.520;2022-08-20T04:06:43;100366.19;;;26.34;50.59
28428;BME280;15662;49.128;8.520;2022-08-20T04:09:16;100361.34;;;26.28;51.09
28428;BME280;15662;49.128;8.520;2022-08-20T04:11:45;100364.91;;;26.28;51.32
28428;BME280;15662;49.128;8.520;2022-08-20T04:14:13;100363.47;;;26.24;51.36
28428;BME280;15662;49.128;8.520;2022-08-20T04:16:47;100360.03;;;26.22;51.54
28428;BME280;15662;49.128;8.520;2022-08-20T04:19:15;100352.47;;;26.16;51.68
28428;BME280;15662;49.128;8.520;2022-08-20T04:21:44;100368.19;;;26.22;51.69
28428;BME280;15662;49.128;8.520;2022-08-20T04:24:16;100363.75;;;26.21;51.75
28428;BME280;15662;49.128;8.520;2022-08-20T04:27:00;100364.75;;;26.20;51.82
28428;BME280;15662;49.128;8.520;2022-08-20T04:29:33;100359.72;;;26.15;51.92
28428;BME280;15662;49.128;8.520;2022-08-20T04:32:05;100366.47;;;26.11;51.88
28428;BME280;15662;49.128;8.520;2022-08-20T04:34:34;100358.56;;;26.08;52.20
28428;BME280;15662;49.128;8.520;2022-08-20T04:37:03;100360.19;;;26.11;52.13
28428;BME280;15662;49.128;8.520;2022-08-20T04:39:32;100366.31;;;26.13;52.47
28428;BME280;15662;49.128;8.520;2022-08-20T04:42:02;100359.28;;;26.10;52.39
28428;BME280;15662;49.128;8.520;2022-08-20T04:44:30;100371.91;;;26.11;52.39
28428;BME280;15662;49.128;8.520;2022-08-20T04:47:00;100348.72;;;26.07;52.88
28428;BME280;15662;49.128;8.520;2022-08-20T04:49:28;100367.16;;;26.13;52.69
28428;BME280;15662;49.128;8.520;2022-08-20T04:51:58;100351.69;;;26.04;52.87
28428;BME280;15662;49.128;8.520;2022-08-20T04:54:26;100376.47;;;26.11;52.78
28428;BME280;15662;49.128;8.520;2022-08-20T04:56:54;100371.31;;;26.08;52.91
28428;BME280;15662;49.128;8.520;2022-08-20T04:59:22;100367.84;;;26.06;53.00
28428;BME280;15662;49.128;8.520;2022-08-20T05:01:51;100380.31;;;26.08;52.92
28428;BME280;15662;49.128;8.520;2022-08-20T05:04:19;100374.88;;;26.08;53.00
28428;BME280;15662;49.128;8.520;2022-08-20T05:06:47;100389.47;;;26.07;53.02
28428;BME280;15662;49.128;8.520;2022-08-20T05:09:19;100392.28;;;26.06;52.57
28428;BME280;15662;49.128;8.520;2022-08-20T05:11:47;100394.13;;;25.95;52.61
28428;BME280;15662;49.128;8.520;2022-08-20T05:14:15;100389.69;;;25.94;53.00
28428;BME280;15662;49.128;8.520;2022-08-20T05:16:45;100386.53;;;25.89;52.79
28428;BME280;15662;49.128;8.520;2022-08-20T05:19:15;100387.38;;;25.90;53.13
28428;BME280;15662;49.128;8.520;2022-08-20T05:21:44;100394.81;;;25.88;52.96
28428;BME280;15662;49.128;8.520;2022-08-20T05:24:14;100401.13;;;25.88;53.06
28428;BME280;15662;49.128;8.520;2022-08-20T05:26:43;100402.81;;;25.89;52.96
28428;BME280;15662;49.128;8.520;2022-08-20T05:29:12;100402.97;;;25.88;53.06
28428;BME280;15662;49.128;8.520;2022-08-20T05:31:42;100403.38;;;25.83;53.03
28428;BME280;15662;49.128;8.520;2022-08-20T05:34:12;100410.34;;;25.76;53.01
28428;BME280;15662;49.128;8.520;2022-08-20T05:36:49;100416.09;;;25.83;52.81
28428;BME280;15662;49.128;8.520;2022-08-20T05:39:40;100421.44;;;25.73;53.07
28428;BME280;15662;49.128;8.520;2022-08-20T05:42:09;100415.16;;;25.72;53.32
28428;BME280;15662;49.128;8.520;2022-08-20T05:44:39;100420.44;;;25.74;53.01
28428;BME280;15662;49.128;8.520;2022-08-20T05:47:09;100417.28;;;25.69;53.28
28428;BME280;15662;49.128;8.520;2022-08-20T05:49:38;100421.84;;;25.68;53.18
28428;BME280;15662;49.128;8.520;2022-08-20T05:52:07;100419.75;;;25.72;53.38
28428;BME280;15662;49.128;8.520;2022-08-20T05:54:36;100408.03;;;25.71;53.28
28428;BME280;15662;49.128;8.520;2022-08-20T05:57:05;100426.97;;;25.83;53.62
28428;BME280;15662;49.128;8.520;2022-08-20T05:59:35;100423.56;;;25.90;53.45
28428;BME280;15662;49.128;8.520;2022-08-20T06:02:07;100418.84;;;25.92;53.41
28428;BME280;15662;49.128;8.520;2022-08-20T06:04:56;100431.03;;;25.98;53.45
28428;BME280;15662;49.128;8.520;2022-08-20T06:07:24;100423.47;;;26.02;53.40
28428;BME280;15662;49.128;8.520;2022-08-20T06:09:54;100423.06;;;26.06;53.70
28428;BME280;15662;49.128;8.520;2022-08-20T06:12:22;100421.91;;;26.09;53.37
28428;BME280;15662;49.128;8.520;2022-08-20T06:14:51;100413.63;;;26.10;53.39
28428;BME280;15662;49.128;8.520;2022-08-20T06:17:21;100416.06;;;26.13;53.18
28428;BME280;15662;49.128;8.520;2022-08-20T06:19:50;100418.38;;;26.18;53.30
28428;BME280;15662;49.128;8.520;2022-08-20T06:22:19;100413.53;;;26.21;53.04
28428;BME280;15662;49.128;8.520;2022-08-20T06:24:54;100409.06;;;26.20;53.41
28428;BME280;15662;49.128;8.520;2022-08-20T06:27:23;100418.25;;;26.29;53.14
28428;BME280;15662;49.128;8.520;2022-08-20T06:29:53;100421.84;;;26.39;53.13
28428;BME280;15662;49.128;8.520;2022-08-20T06:32:23;100424.59;;;26.49;53.25
28428;BME280;15662;49.128;8.520;2022-08-20T06:35:07;100427.50;;;26.57;52.98
28428;BME280;15662;49.128;8.520;2022-08-20T06:37:39;100429.06;;;26.60;52.93
28428;BME280;15662;49.128;8.520;2022-08-20T06:40:21;100428.22;;;26.69;53.01
28428;BME280;15662;49.128;8.520;2022-08-20T06:42:51;100424.22;;;26.73;53.07
28428;BME280;15662;49.128;8.520;2022-08-20T06:45:30;100425.91;;;26.74;52.60
28428;BME280;15662;49.128;8.520;2022-08-20T06:48:06;100444.00;;;26.85;52.71
28428;BME280;15662;49.128;8.520;2022-08-20T06:50:41;100431.25;;;26.85;52.47
28428;BME280;15662;49.128;8.520;2022-08-20T06:53:18;100438.25;;;26.88;52.23
28428;BME280;15662;49.128;8.520;2022-08-20T06:55:51;100447.13;;;26.90;52.28
28428;BME280;15662;49.128;8.520;2022-08-20T06:58:23;100431.66;;;26.81;52.43
28428;BME280;15662;49.128;8.520;2022-08-20T07:01:10;100443.97;;;26.94;51.94
28428;BME280;15662;49.128;8.520;2022-08-20T07:03:41;100435.69;;;26.96;51.82
28428;BME280;15662;49.128;8.520;2022-08-20T07:06:24;100442.97;;;26.95;51.99
28428;BME280;15662;49.128;8.520;2022-08-20T07:08:54;100445.13;;;27.01;52.11
28428;BME280;15662;49.128;8.520;2022-08-20T07:11:23;100441.69;;;26.99;51.92
28428;BME280;15662;49.128;8.520;2022-08-20T07:13:57;100453.88;;;27.05;51.67
28428;BME280;15662;49.128;8.520;2022-08-20T07:16:27;100458.44;;;26.85;51.86
28428;BME280;15662;49.128;8.520;2022-08-20T07:18:54;100458.16;;;26.98;51.96
28428;BME280;15662;49.128;8.520;2022-08-20T07:21:24;100454.72;;;27.06;51.63
28428;BME280;15662;49.128;8.520;2022-08-20T07:23:55;100449.00;;;27.09;51.42
28428;BME280;15662;49.128;8.520;2022-08-20T07:26:23;100452.00;;;27.06;51.52
28428;BME280;15662;49.128;8.520;2022-08-20T07:28:52;100453.47;;;27.10;51.38
28428;BME280;15662;49.128;8.520;2022-08-20T07:31:22;100453.47;;;27.10;51.53
28428;BME280;15662;49.128;8.520;2022-08-20T07:34:10;100458.19;;;27.08;51.28
28428;BME280;15662;49.128;8.520;2022-08-20T07:36:39;100463.63;;;27.08;51.34
28428;BME280;15662;49.128;8.520;2022-08-20T07:39:10;100461.31;;;27.13;51.25
28428;BME280;15662;49.128;8.520;2022-08-20T07:41:38;100461.31;;;27.13;51.15
28428;BME280;15662;49.128;8.520;2022-08-20T07:44:06;100456.63;;;27.15;51.13
28428;BME280;15662;49.128;8.520;2022-08-20T07:46:36;100460.75;;;27.19;51.19
28428;BME280;15662;49.128;8.520;2022-08-20T07:49:04;100476.50;;;27.25;51.13
28428;BME280;15662;49.128;8.520;2022-08-20T07:51:36;100473.22;;;27.31;51.17
28428;BME280;15662;49.128;8.520;2022-08-20T07:54:06;100470.91;;;27.36;50.93
28428;BME280;15662;49.128;8.520;2022-08-20T07:56:34;100474.19;;;27.49;50.82
28428;BME280;15662;49.128;8.520;2022-08-20T07:59:03;100475.47;;;27.55;51.02
28428;BME280;15662;49.128;8.520;2022-08-20T08:01:31;100462.44;;;27.59;50.62
28428;BME280;15662;49.128;8.520;2022-08-20T08:03:59;100476.88;;;27.79;50.52
28428;BME280;15662;49.128;8.520;2022-08-20T08:06:30;100467.50;;;27.91;50.69
28428;BME280;15662;49.128;8.520;2022-08-20T08:09:07;100479.97;;;28.03;50.48
28428;BME280;15662;49.128;8.520;2022-08-20T08:11:46;100481.63;;;28.14;50.40
28428;BME280;15662;49.128;8.520;2022-08-20T08:14:26;100474.88;;;28.18;50.07
28428;BME280;15662;49.128;8.520;2022-08-20T08:16:59;100481.59;;;28.23;50.30
28428;BME280;15662;49.128;8.520;2022-08-20T08:19:33;100490.28;;;28.27;49.93
28428;BME280;15662;49.128;8.520;2022-08-20T08:22:10;100478.53;;;28.26;49.80
28428;BME280;15662;49.128;8.520;2022-08-20T08:24:43;100480.13;;;28.29;49.24
28428;BME280;15662;49.128;8.520;2022-08-20T08:27:25;100482.97;;;28.27;49.25
28428;BME280;15662;49.128;8.520;2022-08-20T08:29:54;100488.28;;;28.29;49.26
28428;BME280;15662;49.128;8.520;2022-08-20T08:32:22;100478.53;;;28.26;49.09
28428;BME280;15662;49.128;8.520;2022-08-20T08:34:53;100476.25;;;28.22;48.96
28428;BME280;15662;49.128;8.520;2022-08-20T08:37:21;100486.88;;;28.25;48.97
28428;BME280;15662;49.128;8.520;2022-08-20T08:39:49;100481.59;;;28.23;48.77
28428;BME280;15662;49.128;8.520;2022-08-20T08:42:45;100478.84;;;28.23;48.83
28428;BME280;15662;49.128;8.520;2022-08-20T08:45:15;100474.38;;;28.22;48.88
28428;BME280;15662;49.128;8.520;2022-08-20T08:47:45;100489.16;;;28.29;48.80
28428;BME280;15662;49.128;8.520;2022-08-20T08:50:30;100486.09;;;28.42;48.95
28428;BME280;15662;49.128;8.520;2022-08-20T08:53:50;100478.78;;;28.43;48.58
28428;BME280;15662;49.128;8.520;2022-08-20T08:56:24;100485.50;;;28.48;48.70
28428;BME280;15662;49.128;8.520;2022-08-20T08:59:04;100484.03;;;28.54;48.66
28428;BME280;15662;49.128;8.520;2022-08-20T09:01:43;100491.34;;;28.53;48.12
28428;BME280;15662;49.128;8.520;2022-08-20T09:04:33;100502.09;;;28.55;48.18
28428;BME280;15662;49.128;8.520;2022-08-20T09:07:08;100497.94;;;28.51;48.21
28428;BME280;15662;49.128;8.520;2022-08-20T09:09:43;100495.84;;;28.45;48.08
28428;BME280;15662;49.128;8.520;2022-08-20T09:12:18;100506.75;;;28.45;47.94
28428;BME280;15662;49.128;8.520;2022-08-20T09:14:48;100497.16;;;28.41;47.79
28428;BME280;15662;49.128;8.520;2022-08-20T09:17:19;100503.34;;;28.43;47.91
28428;BME280;15662;49.128;8.520;2022-08-20T09:19:48;100499.59;;;28.44;48.21
28428;BME280;15662;49.128;8.520;2022-08-20T09:22:21;100498.13;;;28.49;47.85
28428;BME280;15662;49.128;8.520;2022-08-20T09:24:52;100502.09;;;28.55;48.05
28428;BME280;15662;49.128;8.520;2022-08-20T09:27:21;100505.94;;;28.62;47.62
28428;BME280;15662;49.128;8.520;2022-08-20T09:29:49;100498.84;;;28.69;47.61
28428;BME280;15662;49.128;8.520;2022-08-20T09:32:23;100495.22;;;28.78;47.42
28428;BME280;15662;49.128;8.520;2022-08-20T09:34:54;100492.88;;;28.84;47.06
28428;BME280;15662;49.128;8.520;2022-08-20T09:37:28;100493.97;;;28.91;47.17
28428;BME280;15662;49.128;8.520;2022-08-20T09:40:03;100492.50;;;28.96;46.95
28428;BME280;15662;49.128;8.520;2022-08-20T09:42:34;100489.41;;;29.09;46.96
28428;BME280;15662;49.128;8.520;2022-08-20T09:45:10;100485.81;;;29.26;47.05
28428;BME280;15662;49.128;8.520;2022-08-20T09:47:40;100475.03;;;29.43;46.43
28428;BME280;15662;49.128;8.520;2022-08-20T09:50:23;100466.28;;;29.57;46.49
28428;BME280;15662;49.128;8.520;2022-08-20T09:52:53;100473.84;;;29.63;46.02
28428;BME280;15662;49.128;8.520;2022-08-20T09:57:53;100469.84;;;29.75;45.72
28428;BME280;15662;49.128;8.520;2022-08-20T10:00:22;100465.13;;;29.86;45.21
28428;BME280;15662;49.128;8.520;2022-08-20T10:02:50;100475.03;;;29.95;45.19
28428;BME280;15662;49.128;8.520;2022-08-20T10:05:19;100460.91;;;29.99;44.97
28428;BME280;15662;49.128;8.520;2022-08-20T10:07:49;100466.41;;;30.07;44.93
28428;BME280;15662;49.128;8.520;2022-08-20T10:10:19;100472.31;;;30.21;44.45
28428;BME280;15662;49.128;8.520;2022-08-20T10:12:47;100465.72;;;30.31;44.24
28428;BME280;15662;49.128;8.520;2022-08-20T10:15:21;100465.22;;;30.44;44.37
28428;BME280;15662;49.128;8.520;2022-08-20T10:17:49;100458.44;;;30.56;44.00
28428;BME280;15662;49.128;8.520;2022-08-20T10:20:19;100453.34;;;30.70;43.63
28428;BME280;15662;49.128;8.520;2022-08-20T10:22:49;100457.50;;;30.82;43.13
28428;BME280;15662;49.128;8.520;2022-08-20T10:25:18;100453.75;;;30.91;43.03
28428;BME280;15662;49.128;8.520;2022-08-20T10:27:47;100449.16;;;31.00;43.01
28428;BME280;15662;49.128;8.520;2022-08-20T10:30:16;100455.13;;;31.12;42.87
28428;BME280;15662;49.128;8.520;2022-08-20T10:32:45;100455.28;;;31.18;42.19
28428;BME280;15662;49.128;8.520;2022-08-20T10:35:15;100448.13;;;31.25;42.13
28428;BME280;15662;49.128;8.520;2022-08-20T10:37:43;100442.69;;;31.33;41.93
28428;BME280;15662;49.128;8.520;2022-08-20T10:40:13;100442.31;;;31.45;41.96
28428;BME280;15662;49.128;8.520;2022-08-20T10:42:46;100445.91;;;31.53;41.50
28428;BME280;15662;49.128;8.520;2022-08-20T10:45:16;100440.59;;;31.52;41.09
28428;BME280;15662;49.128;8.520;2022-08-20T10:47:45;100448.97;;;31.50;41.06
28428;BME280;15662;49.128;8.520;2022-08-20T10:50:15;100443.00;;;31.47;40.84
28428;BME280;15662;49.128;8.520;2022-08-20T10:52:45;100441.84;;;31.33;40.63
28428;BME280;15662;49.128;8.520;2022-08-20T10:55:14;100448.28;;;31.16;40.53
28428;BME280;15662;49.128;8.520;2022-08-20T10:57:44;100445.22;;;30.94;40.80
28428;BME280;15662;49.128;8.520;2022-08-20T11:00:15;100463.81;;;30.82;41.68
28428;BME280;15662;49.128;8.520;2022-08-20T11:02:44;100457.22;;;30.59;41.55
28428;BME280;15662;49.128;8.520;2022-08-20T11:05:12;100464.06;;;30.47;42.13
28428;BME280;15662;49.128;8.520;2022-08-20T11:07:43;100458.53;;;30.39;42.99
28428;BME280;15662;49.128;8.520;2022-08-20T11:10:26;100446.25;;;30.35;42.98
28428;BME280;15662;49.128;8.520;2022-08-20T11:12:56;100450.69;;;30.44;43.20
28428;BME280;15662;49.128;8.520;2022-08-20T11:15:26;100449.34;;;30.48;43.02
28428;BME280;15662;49.128;8.520;2022-08-20T11:17:54;100445.78;;;30.55;43.13
28428;BME280;15662;49.128;8.520;2022-08-20T11:20:25;100451.25;;;30.64;43.51
28428;BME280;15662;49.128;8.520;2022-08-20T11:22:54;100437.63;;;30.72;43.64
28428;BME280;15662;49.128;8.520;2022-08-20T11:25:24;100430.97;;;30.82;42.89
28428;BME280;15662;49.128;8.520;2022-08-20T11:27:55;100429.97;;;31.00;42.63
28428;BME280;15662;49.128;8.520;2022-08-20T11:30:26;100416.25;;;30.83;43.24
28428;BME280;15662;49.128;8.520;2022-08-20T11:32:57;100421.59;;;31.01;42.74
28428;BME280;15662;49.128;8.520;2022-08-20T11:35:28;100436.81;;;31.20;41.86
28428;BME280;15662;49.128;8.520;2022-08-20T11:38:17;100435.97;;;31.20;41.50
28428;BME280;15662;49.128;8.520;2022-08-20T11:41:08;100437.03;;;31.27;40.30
28428;BME280;15662;49.128;8.520;2022-08-20T11:43:37;100431.03;;;31.31;39.76
28428;BME280;15662;49.128;8.520;2022-08-20T11:46:06;100430.88;;;31.33;39.30
28428;BME280;15662;49.128;8.520;2022-08-20T11:48:36;100423.31;;;31.35;39.36
28428;BME280;15662;49.128;8.520;2022-08-20T11:51:04;100426.91;;;31.44;39.09
28428;BME280;15662;49.128;8.520;2022-08-20T11:53:33;100432.72;;;31.49;38.56
28428;BME280;15662;49.128;8.520;2022-08-20T11:56:05;100413.38;;;31.42;38.42
28428;BME280;15662;49.128;8.520;2022-08-20T11:58:33;100422.63;;;31.49;38.42
28428;BME280;15662;49.128;8.520;2022-08-20T12:01:02;100424.84;;;31.54;38.56
28428;BME280;15662;49.128;8.520;2022-08-20T12:03:33;100425.84;;;31.61;38.22
28428;BME280;15662;49.128;8.520;2022-08-20T12:06:01;100419.84;;;31.66;38.07
28428;BME280;15662;49.128;8.520;2022-08-20T12:08:29;100421.03;;;31.71;37.77
28428;BME280;15662;49.128;8.520;2022-08-20T12:11:01;100411.63;;;31.74;37.74
28428;BME280;15662;49.128;8.520;2022-08-20T12:13:33;100404.06;;;31.76;37.15
28428;BME280;15662;49.128;8.520;2022-08-20T12:16:17;100411.75;;;31.72;37.33
28428;BME280;15662;49.128;8.520;2022-08-20T12:18:47;100402.25;;;31.44;38.56
28428;BME280;15662;49.128;8.520;2022-08-20T12:21:16;100421.22;;;31.62;37.55
28428;BME280;15662;49.128;8.520;2022-08-20T12:23:44;100427.53;;;31.70;37.25
28428;BME280;15662;49.128;8.520;2022-08-20T12:26:14;100412.47;;;31.74;37.30
28428;BME280;15662;49.128;8.520;2022-08-20T12:28:45;100412.13;;;31.77;36.72
28428;BME280;15662;49.128;8.520;2022-08-20T12:31:13;100402.53;;;31.73;36.82
28428;BME280;15662;49.128;8.520;2022-08-20T12:33:43;100405.28;;;31.73;36.69
28428;BME280;15662;49.128;8.520;2022-08-20T12:36:13;100391.06;;;31.70;35.98
28428;BME280;15662;49.128;8.520;2022-08-20T12:38:42;100406.66;;;31.69;35.99
28428;BME280;15662;49.128;8.520;2022-08-20T12:41:11;100403.06;;;31.69;35.67
28428;BME280;15662;49.128;8.520;2022-08-20T12:43:39;100397.06;;;31.65;35.53
28428;BME280;15662;49.128;8.520;2022-08-20T12:46:08;100412.31;;;31.68;35.62
28428;BME280;15662;49.128;8.520;2022-08-20T12:48:36;100389.56;;;31.59;35.69
28428;BME280;15662;49.128;8.520;2022-08-20T12:51:05;100397.72;;;31.67;35.50
28428;BME280;15662;49.128;8.520;2022-08-20T12:53:34;100408.22;;;31.64;35.42
28428;BME280;15662;49.128;8.520;2022-08-20T12:56:04;100409.78;;;31.58;35.17
28428;BME280;15662;49.128;8.520;2022-08-20T12:58:33;100407.19;;;31.56;35.04
28428;BME280;15662;49.128;8.520;2022-08-20T13:01:01;100401.38;;;31.51;34.71
28428;BME280;15662;49.128;8.520;2022-08-20T13:03:30;100402.22;;;31.52;34.49
28428;BME280;15662;49.128;8.520;2022-08-20T13:06:01;100388.06;;;31.48;34.48
28428;BME280;15662;49.128;8.520;2022-08-20T13:08:30;100391.28;;;31.52;34.50
28428;BME280;15662;49.128;8.520;2022-08-20T13:10:59;100385.78;;;31.52;34.45
28428;BME280;15662;49.128;8.520;2022-08-20T13:13:27;100379.13;;;31.54;34.15
28428;BME280;15662;49.128;8.520;2022-08-20T13:15:55;100380.81;;;31.55;34.47
28428;BME280;15662;49.128;8.520;2022-08-20T13:18:23;100381.88;;;31.54;34.31
28428;BME280;15662;49.128;8.520;2022-08-20T13:20:52;100372.09;;;31.60;34.50
28428;BME280;15662;49.128;8.520;2022-08-20T13:23:20;100368.84;;;31.56;34.62
28428;BME280;15662;49.128;8.520;2022-08-20T13:25:51;100375.50;;;31.62;34.70
28428;BME280;15662;49.128;8.520;2022-08-20T13:28:19;100367.47;;;31.60;33.59
28428;BME280;15662;49.128;8.520;2022-08-20T13:30:49;100363.34;;;31.65;33.39
28428;BME280;15662;49.128;8.520;2022-08-20T13:33:18;100362.13;;;31.67;32.75
28428;BME280;15662;49.128;8.520;2022-08-20T13:35:46;100364.69;;;31.69;32.57